sensor_id;sensor_type;location;lat;lon;timestamp;P1;durP1;ratioP1;P2;durP2;ratioP2
18259;SDS011;9256;52.236;5.712;2023-06-14T00:00:47;6.90;;;2.60;;
18259;SDS011;9256;52.236;5.712;2023-06-14T00:03:14;7.82;;;2.40;;
18259;SDS011;9256;52.236;5.712;2023-06-14T00:05:42;5.70;;;2.45;;
18259;SDS011;9256;52.236;5.712;2023-06-14T00:08:11;7.82;;;2.30;;
18259;SDS011;9256;52.236;5.712;2023-06-14T00:10:38;8.63;;;2.30;;
18259;SDS011;9256;52.236;5.712;2023-06-14T00:13:09;4.40;;;2.30;;
18259;SDS011;9256;52.236;5.712;2023-06-14T00:15:36;5.45;;;2.47;;
18259;SDS011;9256;52.236;5.712;2023-06-14T00:18:03;5.63;;;2.45;;
18259;SDS011;9256;52.236;5.712;2023-06-14T00:20:31;5.97;;;2.22;;
18259;SDS011;9256;52.236;5.712;2023-06-14T00:22:59;7.45;;;2.13;;
18259;SDS011;9256;52.236;5.712;2023-06-14T00:25:26;4.20;;;2.13;;
18259;SDS011;9256;52.236;5.712;2023-06-14T00:27:54;5.90;;;2.65;;
18259;SDS011;9256;52.236;5.712;2023-06-14T00:30:23;3.83;;;2.10;;
18259;SDS011;9256;52.236;5.712;2023-06-14T00:32:50;8.75;;;2.30;;
18259;SDS011;9256;52.236;5.712;2023-06-14T00:35:17;7.65;;;2.40;;
18259;SDS011;9256;52.236;5.712;2023-06-14T00:37:44;6.60;;;2.38;;
18259;SDS011;9256;52.236;5.712;2023-06-14T00:40:11;7.27;;;2.57;;
18259;SDS011;9256;52.236;5.712;2023-06-14T00:42:38;5.15;;;2.40;;
18259;SDS011;9256;52.236;5.712;2023-06-14T00:45:05;5.85;;;2.25;;
18259;SDS011;9256;52.236;5.712;2023-06-14T00:47:34;8.25;;;2.47;;
18259;SDS011;9256;52.236;5.712;2023-06-14T00:50:03;8.07;;;2.22;;
18259;SDS011;9256;52.236;5.712;2023-06-14T00:52:34;6.07;;;2.25;;
18259;SDS011;9256;52.236;5.712;2023-06-14T00:55:01;5.88;;;2.20;;
18259;SDS011;9256;52.236;5.712;2023-06-14T00:57:28;4.85;;;2.03;;
18259;SDS011;9256;52.236;5.712;2023-06-14T00:59:55;6.63;;;2.22;;
18259;SDS011;9256;52.236;5.712;2023-06-14T01:02:22;6.05;;;2.70;;
18259;SDS011;9256;52.236;5.712;2023-06-14T01:04:51;6.53;;;2.47;;
18259;SDS011;9256;52.236;5.712;2023-06-14T01:07:23;6.28;;;2.58;;
18259;SDS011;9256;52.236;5.712;2023-06-14T01:10:02;6.50;;;2.20;;
18259;SDS011;9256;52.236;5.712;2023-06-14T01:12:39;7.85;;;2.28;;
18259;SDS011;9256;52.236;5.712;2023-06-14T01:15:25;4.60;;;1.95;;
18259;SDS011;9256;52.236;5.712;2023-06-14T01:17:55;4.90;;;2.38;;
18259;SDS011;9256;52.236;5.712;2023-06-14T01:20:29;7.40;;;2.20;;
18259;SDS011;9256;52.236;5.712;2023-06-14T01:22:59;4.35;;;2.10;;
18259;SDS011;9256;52.236;5.712;2023-06-14T01:25:27;5.85;;;2.28;;
18259;SDS011;9256;52.236;5.712;2023-06-14T01:27:55;6.88;;;2.35;;
18259;SDS011;9256;52.236;5.712;2023-06-14T01:30:25;6.28;;;2.30;;
18259;SDS011;9256;52.236;5.712;2023-06-14T01:32:53;5.72;;;2.15;;
18259;SDS011;9256;52.236;5.712;2023-06-14T01:35:21;5.95;;;2.50;;
18259;SDS011;9256;52.236;5.712;2023-06-14T01:37:49;5.93;;;2.10;;
18259;SDS011;9256;52.236;5.712;2023-06-14T01:40:19;4.97;;;2.50;;
18259;SDS011;9256;52.236;5.712;2023-06-14T01:42:47;5.95;;;2.13;;
18259;SDS011;9256;52.236;5.712;2023-06-14T01:45:16;3.35;;;1.90;;
18259;SDS011;9256;52.236;5.712;2023-06-14T01:47:44;6.25;;;2.05;;
18259;SDS011;9256;52.236;5.712;2023-06-14T01:50:12;6.53;;;2.17;;
18259;SDS011;9256;52.236;5.712;2023-06-14T01:52:39;6.03;;;2.20;;
18259;SDS011;9256;52.236;5.712;2023-06-14T01:55:07;7.43;;;2.20;;
18259;SDS011;9256;52.236;5.712;2023-06-14T01:57:35;7.75;;;2.20;;
18259;SDS011;9256;52.236;5.712;2023-06-14T02:00:02;6.22;;;1.98;;
18259;SDS011;9256;52.236;5.712;2023-06-14T02:02:33;5.07;;;2.08;;
18259;SDS011;9256;52.236;5.712;2023-06-14T02:05:00;5.13;;;2.20;;
18259;SDS011;9256;52.236;5.712;2023-06-14T02:07:27;5.40;;;1.90;;
18259;SDS011;9256;52.236;5.712;2023-06-14T02:09:54;4.03;;;2.20;;
18259;SDS011;9256;52.236;5.712;2023-06-14T02:12:21;5.75;;;2.20;;
18259;SDS011;9256;52.236;5.712;2023-06-14T02:14:49;8.45;;;2.53;;
18259;SDS011;9256;52.236;5.712;2023-06-14T02:17:16;5.40;;;2.55;;
18259;SDS011;9256;52.236;5.712;2023-06-14T02:19:43;6.45;;;2.10;;
18259;SDS011;9256;52.236;5.712;2023-06-14T02:22:10;4.43;;;2.20;;
18259;SDS011;9256;52.236;5.712;2023-06-14T02:24:39;7.70;;;2.42;;
18259;SDS011;9256;52.236;5.712;2023-06-14T02:27:06;6.25;;;2.00;;
18259;SDS011;9256;52.236;5.712;2023-06-14T02:29:35;4.20;;;2.00;;
18259;SDS011;9256;52.236;5.712;2023-06-14T02:32:04;6.82;;;2.60;;
18259;SDS011;9256;52.236;5.712;2023-06-14T02:34:32;7.20;;;2.28;;
18259;SDS011;9256;52.236;5.712;2023-06-14T02:36:59;7.63;;;2.35;;
18259;SDS011;9256;52.236;5.712;2023-06-14T02:39:27;10.77;;;2.08;;
18259;SDS011;9256;52.236;5.712;2023-06-14T02:41:54;4.80;;;1.85;;
18259;SDS011;9256;52.236;5.712;2023-06-14T02:44:24;4.72;;;2.20;;
18259;SDS011;9256;52.236;5.712;2023-06-14T02:46:52;11.38;;;2.30;;
18259;SDS011;9256;52.236;5.712;2023-06-14T02:49:21;6.45;;;2.15;;
18259;SDS011;9256;52.236;5.712;2023-06-14T02:51:48;4.72;;;2.30;;
18259;SDS011;9256;52.236;5.712;2023-06-14T02:54:15;5.18;;;2.00;;
18259;SDS011;9256;52.236;5.712;2023-06-14T02:56:42;5.75;;;2.40;;
18259;SDS011;9256;52.236;5.712;2023-06-14T02:59:09;5.32;;;2.10;;
18259;SDS011;9256;52.236;5.712;2023-06-14T03:01:36;5.40;;;2.40;;
18259;SDS011;9256;52.236;5.712;2023-06-14T03:04:06;6.88;;;2.63;;
18259;SDS011;9256;52.236;5.712;2023-06-14T03:06:34;6.80;;;2.40;;
18259;SDS011;9256;52.236;5.712;2023-06-14T03:09:01;7.75;;;2.20;;
18259;SDS011;9256;52.236;5.712;2023-06-14T03:11:29;7.57;;;2.50;;
18259;SDS011;9256;52.236;5.712;2023-06-14T03:13:56;6.28;;;2.53;;
18259;SDS011;9256;52.236;5.712;2023-06-14T03:16:24;7.32;;;2.38;;
18259;SDS011;9256;52.236;5.712;2023-06-14T03:18:53;4.38;;;2.30;;
18259;SDS011;9256;52.236;5.712;2023-06-14T03:21:20;5.70;;;2.60;;
18259;SDS011;9256;52.236;5.712;2023-06-14T03:23:49;8.93;;;2.55;;
18259;SDS011;9256;52.236;5.712;2023-06-14T03:26:16;9.77;;;2.42;;
18259;SDS011;9256;52.236;5.712;2023-06-14T03:28:43;6.03;;;2.42;;
18259;SDS011;9256;52.236;5.712;2023-06-14T03:31:11;6.00;;;2.53;;
18259;SDS011;9256;52.236;5.712;2023-06-14T03:33:38;4.88;;;2.30;;
18259;SDS011;9256;52.236;5.712;2023-06-14T03:36:05;5.70;;;2.55;;
18259;SDS011;9256;52.236;5.712;2023-06-14T03:38:33;5.10;;;2.40;;
18259;SDS011;9256;52.236;5.712;2023-06-14T03:41:01;7.07;;;2.40;;
18259;SDS011;9256;52.236;5.712;2023-06-14T03:43:28;7.05;;;2.45;;
18259;SDS011;9256;52.236;5.712;2023-06-14T03:45:56;8.10;;;2.20;;
18259;SDS011;9256;52.236;5.712;2023-06-14T03:48:23;4.68;;;2.25;;
18259;SDS011;9256;52.236;5.712;2023-06-14T03:50:50;4.72;;;2.13;;
18259;SDS011;9256;52.236;5.712;2023-06-14T03:53:17;6.28;;;2.58;;
18259;SDS011;9256;52.236;5.712;2023-06-14T03:55:45;6.32;;;2.47;;
18259;SDS011;9256;52.236;5.712;2023-06-14T03:58:14;5.63;;;2.38;;
18259;SDS011;9256;52.236;5.712;2023-06-14T04:00:42;7.18;;;2.22;;
18259;SDS011;9256;52.236;5.712;2023-06-14T04:03:10;6.57;;;2.15;;
18259;SDS011;9256;52.236;5.712;2023-06-14T04:05:38;4.55;;;2.22;;
18259;SDS011;9256;52.236;5.712;2023-06-14T04:08:07;5.03;;;2.35;;
18259;SDS011;9256;52.236;5.712;2023-06-14T04:10:34;5.25;;;2.25;;
18259;SDS011;9256;52.236;5.712;2023-06-14T04:13:01;6.55;;;2.03;;
18259;SDS011;9256;52.236;5.712;2023-06-14T04:15:31;5.18;;;2.22;;
18259;SDS011;9256;52.236;5.712;2023-06-14T04:17:58;5.75;;;2.05;;
18259;SDS011;9256;52.236;5.712;2023-06-14T04:20:25;5.25;;;2.22;;
18259;SDS011;9256;52.236;5.712;2023-06-14T04:22:52;3.72;;;2.00;;
18259;SDS011;9256;52.236;5.712;2023-06-14T04:25:22;5.88;;;2.38;;
18259;SDS011;9256;52.236;5.712;2023-06-14T04:27:50;7.00;;;2.30;;
18259;SDS011;9256;52.236;5.712;2023-06-14T04:30:17;7.10;;;2.38;;
18259;SDS011;9256;52.236;5.712;2023-06-14T04:32:45;7.25;;;2.30;;
18259;SDS011;9256;52.236;5.712;2023-06-14T04:35:12;21.02;;;2.55;;
18259;SDS011;9256;52.236;5.712;2023-06-14T04:37:39;5.00;;;2.10;;
18259;SDS011;9256;52.236;5.712;2023-06-14T04:40:09;7.47;;;2.30;;
18259;SDS011;9256;52.236;5.712;2023-06-14T04:42:36;6.57;;;2.10;;
18259;SDS011;9256;52.236;5.712;2023-06-14T04:45:06;3.60;;;2.10;;
18259;SDS011;9256;52.236;5.712;2023-06-14T04:47:34;7.13;;;2.08;;
18259;SDS011;9256;52.236;5.712;2023-06-14T04:50:04;4.63;;;2.03;;
18259;SDS011;9256;52.236;5.712;2023-06-14T04:52:31;7.07;;;2.22;;
18259;SDS011;9256;52.236;5.712;2023-06-14T04:55:00;5.70;;;2.13;;
18259;SDS011;9256;52.236;5.712;2023-06-14T04:57:28;7.82;;;2.55;;
18259;SDS011;9256;52.236;5.712;2023-06-14T04:59:55;5.32;;;2.63;;
18259;SDS011;9256;52.236;5.712;2023-06-14T05:02:23;6.20;;;2.40;;
18259;SDS011;9256;52.236;5.712;2023-06-14T05:04:50;4.40;;;2.10;;
18259;SDS011;9256;52.236;5.712;2023-06-14T05:07:19;6.72;;;2.28;;
18259;SDS011;9256;52.236;5.712;2023-06-14T05:09:48;6.43;;;2.40;;
18259;SDS011;9256;52.236;5.712;2023-06-14T05:12:15;6.25;;;2.50;;
18259;SDS011;9256;52.236;5.712;2023-06-14T05:14:43;8.30;;;2.60;;
18259;SDS011;9256;52.236;5.712;2023-06-14T05:17:10;7.72;;;2.30;;
18259;SDS011;9256;52.236;5.712;2023-06-14T05:19:38;5.60;;;2.33;;
18259;SDS011;9256;52.236;5.712;2023-06-14T05:22:05;5.50;;;2.30;;
18259;SDS011;9256;52.236;5.712;2023-06-14T05:24:33;5.32;;;2.20;;
18259;SDS011;9256;52.236;5.712;2023-06-14T05:27:00;4.90;;;2.30;;
18259;SDS011;9256;52.236;5.712;2023-06-14T05:29:29;6.65;;;2.47;;
18259;SDS011;9256;52.236;5.712;2023-06-14T05:31:56;4.57;;;2.22;;
18259;SDS011;9256;52.236;5.712;2023-06-14T05:34:23;4.80;;;2.40;;
18259;SDS011;9256;52.236;5.712;2023-06-14T05:36:50;6.75;;;2.70;;
18259;SDS011;9256;52.236;5.712;2023-06-14T05:39:17;6.28;;;2.53;;
18259;SDS011;9256;52.236;5.712;2023-06-14T05:41:48;4.30;;;2.22;;
18259;SDS011;9256;52.236;5.712;2023-06-14T05:44:15;4.65;;;2.20;;
18259;SDS011;9256;52.236;5.712;2023-06-14T05:46:42;5.20;;;2.35;;
18259;SDS011;9256;52.236;5.712;2023-06-14T05:49:09;6.40;;;2.50;;
18259;SDS011;9256;52.236;5.712;2023-06-14T05:51:37;4.50;;;2.42;;
18259;SDS011;9256;52.236;5.712;2023-06-14T05:54:03;7.28;;;2.50;;
18259;SDS011;9256;52.236;5.712;2023-06-14T05:56:30;6.25;;;2.80;;
18259;SDS011;9256;52.236;5.712;2023-06-14T05:58:59;6.70;;;2.60;;
18259;SDS011;9256;52.236;5.712;2023-06-14T06:01:26;5.28;;;2.70;;
18259;SDS011;9256;52.236;5.712;2023-06-14T06:03:55;7.38;;;2.45;;
18259;SDS011;9256;52.236;5.712;2023-06-14T06:06:22;8.32;;;2.53;;
18259;SDS011;9256;52.236;5.712;2023-06-14T06:08:49;6.40;;;2.58;;
18259;SDS011;9256;52.236;5.712;2023-06-14T06:11:16;5.38;;;2.25;;
18259;SDS011;9256;52.236;5.712;2023-06-14T06:13:43;7.28;;;2.40;;
18259;SDS011;9256;52.236;5.712;2023-06-14T06:16:11;6.88;;;2.30;;
18259;SDS011;9256;52.236;5.712;2023-06-14T06:18:38;5.07;;;2.40;;
18259;SDS011;9256;52.236;5.712;2023-06-14T06:21:05;4.22;;;2.35;;
18259;SDS011;9256;52.236;5.712;2023-06-14T06:23:32;5.32;;;2.10;;
18259;SDS011;9256;52.236;5.712;2023-06-14T06:26:00;6.85;;;2.28;;
18259;SDS011;9256;52.236;5.712;2023-06-14T06:28:27;5.05;;;2.22;;
18259;SDS011;9256;52.236;5.712;2023-06-14T06:30:54;5.20;;;2.40;;
18259;SDS011;9256;52.236;5.712;2023-06-14T06:33:22;5.03;;;2.65;;
18259;SDS011;9256;52.236;5.712;2023-06-14T06:35:50;4.97;;;2.25;;
18259;SDS011;9256;52.236;5.712;2023-06-14T06:38:17;5.57;;;2.40;;
18259;SDS011;9256;52.236;5.712;2023-06-14T06:40:44;5.05;;;2.60;;
18259;SDS011;9256;52.236;5.712;2023-06-14T06:43:11;5.63;;;2.17;;
18259;SDS011;9256;52.236;5.712;2023-06-14T06:45:39;6.15;;;2.30;;
18259;SDS011;9256;52.236;5.712;2023-06-14T06:48:06;6.03;;;2.17;;
18259;SDS011;9256;52.236;5.712;2023-06-14T06:50:36;4.03;;;2.10;;
18259;SDS011;9256;52.236;5.712;2023-06-14T06:53:03;4.60;;;2.08;;
18259;SDS011;9256;52.236;5.712;2023-06-14T06:55:31;4.93;;;2.40;;
18259;SDS011;9256;52.236;5.712;2023-06-14T06:57:58;4.53;;;2.17;;
18259;SDS011;9256;52.236;5.712;2023-06-14T07:00:25;4.82;;;2.13;;
18259;SDS011;9256;52.236;5.712;2023-06-14T07:02:52;4.15;;;2.25;;
18259;SDS011;9256;52.236;5.712;2023-06-14T07:05:20;5.72;;;2.10;;
18259;SDS011;9256;52.236;5.712;2023-06-14T07:07:48;8.77;;;2.05;;
18259;SDS011;9256;52.236;5.712;2023-06-14T07:10:15;6.45;;;2.13;;
18259;SDS011;9256;52.236;5.712;2023-06-14T07:12:42;2.97;;;1.75;;
18259;SDS011;9256;52.236;5.712;2023-06-14T07:15:09;4.45;;;1.80;;
18259;SDS011;9256;52.236;5.712;2023-06-14T07:17:36;6.07;;;1.70;;
18259;SDS011;9256;52.236;5.712;2023-06-14T07:20:03;5.10;;;1.42;;
18259;SDS011;9256;52.236;5.712;2023-06-14T07:22:38;4.90;;;1.80;;
18259;SDS011;9256;52.236;5.712;2023-06-14T07:25:08;6.25;;;1.75;;
18259;SDS011;9256;52.236;5.712;2023-06-14T07:27:38;3.10;;;1.50;;
18259;SDS011;9256;52.236;5.712;2023-06-14T07:30:06;3.88;;;1.67;;
18259;SDS011;9256;52.236;5.712;2023-06-14T07:32:33;7.35;;;1.90;;
18259;SDS011;9256;52.236;5.712;2023-06-14T07:35:00;2.97;;;1.60;;
18259;SDS011;9256;52.236;5.712;2023-06-14T07:37:28;7.07;;;1.65;;
18259;SDS011;9256;52.236;5.712;2023-06-14T07:39:55;4.63;;;1.60;;
18259;SDS011;9256;52.236;5.712;2023-06-14T07:42:24;7.88;;;1.80;;
18259;SDS011;9256;52.236;5.712;2023-06-14T07:44:51;4.15;;;1.52;;
18259;SDS011;9256;52.236;5.712;2023-06-14T07:47:18;2.83;;;1.58;;
18259;SDS011;9256;52.236;5.712;2023-06-14T07:49:45;6.82;;;1.70;;
18259;SDS011;9256;52.236;5.712;2023-06-14T07:52:12;3.60;;;1.50;;
18259;SDS011;9256;52.236;5.712;2023-06-14T07:54:39;4.97;;;1.60;;
18259;SDS011;9256;52.236;5.712;2023-06-14T07:57:06;2.17;;;1.40;;
18259;SDS011;9256;52.236;5.712;2023-06-14T07:59:35;5.10;;;1.70;;
18259;SDS011;9256;52.236;5.712;2023-06-14T08:02:02;2.67;;;1.40;;
18259;SDS011;9256;52.236;5.712;2023-06-14T08:04:29;4.07;;;1.70;;
18259;SDS011;9256;52.236;5.712;2023-06-14T08:06:56;3.67;;;1.60;;
18259;SDS011;9256;52.236;5.712;2023-06-14T08:09:23;4.55;;;1.60;;
18259;SDS011;9256;52.236;5.712;2023-06-14T08:11:50;3.22;;;1.40;;
18259;SDS011;9256;52.236;5.712;2023-06-14T08:14:17;3.38;;;1.40;;
18259;SDS011;9256;52.236;5.712;2023-06-14T08:16:45;2.53;;;1.58;;
18259;SDS011;9256;52.236;5.712;2023-06-14T08:19:12;2.45;;;1.27;;
18259;SDS011;9256;52.236;5.712;2023-06-14T08:21:41;5.35;;;1.35;;
18259;SDS011;9256;52.236;5.712;2023-06-14T08:24:08;9.60;;;1.95;;
18259;SDS011;9256;52.236;5.712;2023-06-14T08:26:37;2.13;;;1.30;;
18259;SDS011;9256;52.236;5.712;2023-06-14T08:29:04;2.15;;;1.30;;
18259;SDS011;9256;52.236;5.712;2023-06-14T08:31:32;5.40;;;1.52;;
18259;SDS011;9256;52.236;5.712;2023-06-14T08:34:00;2.25;;;1.38;;
18259;SDS011;9256;52.236;5.712;2023-06-14T08:36:27;1.75;;;1.35;;
18259;SDS011;9256;52.236;5.712;2023-06-14T08:38:53;3.15;;;1.70;;
18259;SDS011;9256;52.236;5.712;2023-06-14T08:41:21;2.67;;;1.40;;
18259;SDS011;9256;52.236;5.712;2023-06-14T08:43:49;4.68;;;1.50;;
18259;SDS011;9256;52.236;5.712;2023-06-14T08:46:17;2.72;;;1.50;;
18259;SDS011;9256;52.236;5.712;2023-06-14T08:48:46;2.35;;;1.42;;
18259;SDS011;9256;52.236;5.712;2023-06-14T08:51:14;3.40;;;1.70;;
18259;SDS011;9256;52.236;5.712;2023-06-14T08:53:46;3.40;;;1.60;;
18259;SDS011;9256;52.236;5.712;2023-06-14T08:56:19;3.45;;;1.63;;
18259;SDS011;9256;52.236;5.712;2023-06-14T08:58:47;2.53;;;1.65;;
18259;SDS011;9256;52.236;5.712;2023-06-14T09:01:15;9.43;;;2.00;;
18259;SDS011;9256;52.236;5.712;2023-06-14T09:03:42;7.47;;;2.00;;
18259;SDS011;9256;52.236;5.712;2023-06-14T09:06:11;3.30;;;1.50;;
18259;SDS011;9256;52.236;5.712;2023-06-14T09:08:42;4.97;;;1.58;;
18259;SDS011;9256;52.236;5.712;2023-06-14T09:11:10;4.72;;;1.45;;
18259;SDS011;9256;52.236;5.712;2023-06-14T09:13:38;4.25;;;1.60;;
18259;SDS011;9256;52.236;5.712;2023-06-14T09:16:05;4.30;;;1.23;;
18259;SDS011;9256;52.236;5.712;2023-06-14T09:18:35;2.90;;;1.70;;
18259;SDS011;9256;52.236;5.712;2023-06-14T09:21:03;3.17;;;1.85;;
18259;SDS011;9256;52.236;5.712;2023-06-14T09:23:33;6.00;;;1.48;;
18259;SDS011;9256;52.236;5.712;2023-06-14T09:26:07;2.60;;;1.60;;
18259;SDS011;9256;52.236;5.712;2023-06-14T09:28:35;2.17;;;1.50;;
18259;SDS011;9256;52.236;5.712;2023-06-14T09:31:02;3.95;;;1.60;;
18259;SDS011;9256;52.236;5.712;2023-06-14T09:33:30;2.90;;;1.50;;
18259;SDS011;9256;52.236;5.712;2023-06-14T09:35:58;3.42;;;1.45;;
18259;SDS011;9256;52.236;5.712;2023-06-14T09:38:25;4.45;;;1.52;;
18259;SDS011;9256;52.236;5.712;2023-06-14T09:40:52;5.43;;;1.73;;
18259;SDS011;9256;52.236;5.712;2023-06-14T09:43:23;2.22;;;1.20;;
18259;SDS011;9256;52.236;5.712;2023-06-14T09:45:52;5.95;;;1.60;;
18259;SDS011;9256;52.236;5.712;2023-06-14T09:48:20;2.05;;;1.25;;
18259;SDS011;9256;52.236;5.712;2023-06-14T09:50:47;7.43;;;1.55;;
18259;SDS011;9256;52.236;5.712;2023-06-14T09:53:16;2.95;;;1.38;;
18259;SDS011;9256;52.236;5.712;2023-06-14T09:55:47;3.38;;;1.40;;
18259;SDS011;9256;52.236;5.712;2023-06-14T09:58:16;6.40;;;1.60;;
18259;SDS011;9256;52.236;5.712;2023-06-14T10:00:47;6.15;;;1.70;;
18259;SDS011;9256;52.236;5.712;2023-06-14T10:03:19;4.90;;;1.60;;
18259;SDS011;9256;52.236;5.712;2023-06-14T10:05:50;15.05;;;1.77;;
18259;SDS011;9256;52.236;5.712;2023-06-14T10:08:18;5.37;;;1.73;;
18259;SDS011;9256;52.236;5.712;2023-06-14T10:10:46;4.57;;;1.60;;
18259;SDS011;9256;52.236;5.712;2023-06-14T10:13:13;6.03;;;1.83;;
18259;SDS011;9256;52.236;5.712;2023-06-14T10:15:42;3.08;;;1.38;;
18259;SDS011;9256;52.236;5.712;2023-06-14T10:18:19;2.42;;;1.70;;
18259;SDS011;9256;52.236;5.712;2023-06-14T10:20:57;4.78;;;1.48;;
18259;SDS011;9256;52.236;5.712;2023-06-14T10:23:30;2.53;;;1.40;;
18259;SDS011;9256;52.236;5.712;2023-06-14T10:26:01;6.57;;;1.48;;
18259;SDS011;9256;52.236;5.712;2023-06-14T10:28:28;5.78;;;1.65;;
18259;SDS011;9256;52.236;5.712;2023-06-14T10:31:03;3.10;;;1.38;;
18259;SDS011;9256;52.236;5.712;2023-06-14T10:33:33;5.47;;;1.60;;
18259;SDS011;9256;52.236;5.712;2023-06-14T10:36:07;4.07;;;1.40;;
18259;SDS011;9256;52.236;5.712;2023-06-14T10:38:36;3.13;;;1.58;;
18259;SDS011;9256;52.236;5.712;2023-06-14T10:41:04;3.22;;;1.48;;
18259;SDS011;9256;52.236;5.712;2023-06-14T10:43:31;4.30;;;2.00;;
18259;SDS011;9256;52.236;5.712;2023-06-14T10:46:11;2.88;;;1.50;;
18259;SDS011;9256;52.236;5.712;2023-06-14T10:48:44;4.32;;;1.70;;
18259;SDS011;9256;52.236;5.712;2023-06-14T10:51:15;9.77;;;1.98;;
18259;SDS011;9256;52.236;5.712;2023-06-14T10:53:45;2.90;;;1.60;;
18259;SDS011;9256;52.236;5.712;2023-06-14T10:56:22;4.05;;;1.70;;
18259;SDS011;9256;52.236;5.712;2023-06-14T10:58:53;2.65;;;1.48;;
18259;SDS011;9256;52.236;5.712;2023-06-14T11:01:23;2.90;;;1.58;;
18259;SDS011;9256;52.236;5.712;2023-06-14T11:04:12;2.30;;;1.42;;
18259;SDS011;9256;52.236;5.712;2023-06-14T11:06:45;3.55;;;1.60;;
18259;SDS011;9256;52.236;5.712;2023-06-14T11:09:25;3.10;;;1.55;;
18259;SDS011;9256;52.236;5.712;2023-06-14T11:12:19;2.92;;;1.60;;
18259;SDS011;9256;52.236;5.712;2023-06-14T11:14:48;2.70;;;1.58;;
18259;SDS011;9256;52.236;5.712;2023-06-14T11:17:15;2.58;;;1.58;;
18259;SDS011;9256;52.236;5.712;2023-06-14T11:19:43;2.88;;;1.35;;
18259;SDS011;9256;52.236;5.712;2023-06-14T11:22:10;2.72;;;1.55;;
18259;SDS011;9256;52.236;5.712;2023-06-14T11:24:39;2.53;;;1.42;;
18259;SDS011;9256;52.236;5.712;2023-06-14T11:27:06;4.05;;;1.70;;
18259;SDS011;9256;52.236;5.712;2023-06-14T11:29:33;4.15;;;1.63;;
18259;SDS011;9256;52.236;5.712;2023-06-14T11:32:00;2.95;;;1.67;;
18259;SDS011;9256;52.236;5.712;2023-06-14T11:34:27;4.30;;;1.60;;
18259;SDS011;9256;52.236;5.712;2023-06-14T11:36:56;3.50;;;1.55;;
18259;SDS011;9256;52.236;5.712;2023-06-14T11:39:24;4.90;;;1.50;;
18259;SDS011;9256;52.236;5.712;2023-06-14T11:41:52;2.25;;;1.45;;
18259;SDS011;9256;52.236;5.712;2023-06-14T11:44:20;4.57;;;1.80;;
18259;SDS011;9256;52.236;5.712;2023-06-14T11:46:47;4.43;;;1.90;;
18259;SDS011;9256;52.236;5.712;2023-06-14T11:49:15;5.75;;;1.70;;
18259;SDS011;9256;52.236;5.712;2023-06-14T11:51:42;2.90;;;1.70;;
18259;SDS011;9256;52.236;5.712;2023-06-14T11:54:11;3.28;;;1.70;;
18259;SDS011;9256;52.236;5.712;2023-06-14T11:56:41;3.78;;;1.70;;
18259;SDS011;9256;52.236;5.712;2023-06-14T11:59:08;2.58;;;1.80;;
18259;SDS011;9256;52.236;5.712;2023-06-14T12:01:36;3.15;;;1.60;;
18259;SDS011;9256;52.236;5.712;2023-06-14T12:04:04;6.45;;;1.98;;
18259;SDS011;9256;52.236;5.712;2023-06-14T12:06:31;4.30;;;1.87;;
18259;SDS011;9256;52.236;5.712;2023-06-14T12:09:03;4.53;;;1.90;;
18259;SDS011;9256;52.236;5.712;2023-06-14T12:11:33;6.40;;;2.00;;
18259;SDS011;9256;52.236;5.712;2023-06-14T12:14:07;4.10;;;1.60;;
18259;SDS011;9256;52.236;5.712;2023-06-14T12:16:37;2.47;;;1.50;;
18259;SDS011;9256;52.236;5.712;2023-06-14T12:19:08;2.47;;;1.50;;
18259;SDS011;9256;52.236;5.712;2023-06-14T12:21:38;1.90;;;1.40;;
18259;SDS011;9256;52.236;5.712;2023-06-14T12:24:07;3.58;;;1.40;;
18259;SDS011;9256;52.236;5.712;2023-06-14T12:26:39;4.13;;;1.60;;
18259;SDS011;9256;52.236;5.712;2023-06-14T12:29:06;4.85;;;1.70;;
18259;SDS011;9256;52.236;5.712;2023-06-14T12:31:34;5.80;;;1.48;;
18259;SDS011;9256;52.236;5.712;2023-06-14T12:34:01;3.22;;;1.50;;
18259;SDS011;9256;52.236;5.712;2023-06-14T12:36:28;5.20;;;1.55;;
18259;SDS011;9256;52.236;5.712;2023-06-14T12:38:55;3.20;;;1.30;;
18259;SDS011;9256;52.236;5.712;2023-06-14T12:41:21;2.63;;;1.40;;
18259;SDS011;9256;52.236;5.712;2023-06-14T12:43:50;4.35;;;1.40;;
18259;SDS011;9256;52.236;5.712;2023-06-14T12:46:19;5.73;;;1.80;;
18259;SDS011;9256;52.236;5.712;2023-06-14T12:48:47;4.57;;;1.30;;
18259;SDS011;9256;52.236;5.712;2023-06-14T12:51:14;3.60;;;1.50;;
18259;SDS011;9256;52.236;5.712;2023-06-14T12:53:40;2.15;;;1.48;;
18259;SDS011;9256;52.236;5.712;2023-06-14T12:56:08;2.85;;;1.60;;
18259;SDS011;9256;52.236;5.712;2023-06-14T12:58:35;3.97;;;1.50;;
18259;SDS011;9256;52.236;5.712;2023-06-14T13:01:03;6.03;;;1.65;;
18259;SDS011;9256;52.236;5.712;2023-06-14T13:03:30;3.78;;;1.55;;
18259;SDS011;9256;52.236;5.712;2023-06-14T13:05:58;3.75;;;1.45;;
18259;SDS011;9256;52.236;5.712;2023-06-14T13:08:25;2.22;;;1.40;;
18259;SDS011;9256;52.236;5.712;2023-06-14T13:10:52;2.97;;;1.40;;
18259;SDS011;9256;52.236;5.712;2023-06-14T13:13:19;4.07;;;1.60;;
18259;SDS011;9256;52.236;5.712;2023-06-14T13:15:47;4.88;;;1.60;;
18259;SDS011;9256;52.236;5.712;2023-06-14T13:18:16;5.18;;;1.60;;
18259;SDS011;9256;52.236;5.712;2023-06-14T13:20:43;3.50;;;1.60;;
18259;SDS011;9256;52.236;5.712;2023-06-14T13:23:11;3.80;;;1.60;;
18259;SDS011;9256;52.236;5.712;2023-06-14T13:25:38;3.22;;;1.50;;
18259;SDS011;9256;52.236;5.712;2023-06-14T13:28:06;5.28;;;1.67;;
18259;SDS011;9256;52.236;5.712;2023-06-14T13:30:33;2.50;;;1.58;;
18259;SDS011;9256;52.236;5.712;2023-06-14T13:33:00;2.03;;;1.60;;
18259;SDS011;9256;52.236;5.712;2023-06-14T13:35:31;3.45;;;1.63;;
18259;SDS011;9256;52.236;5.712;2023-06-14T13:37:58;2.35;;;1.70;;
18259;SDS011;9256;52.236;5.712;2023-06-14T13:40:25;2.42;;;1.55;;
18259;SDS011;9256;52.236;5.712;2023-06-14T13:42:52;2.70;;;1.75;;
18259;SDS011;9256;52.236;5.712;2023-06-14T13:45:19;2.55;;;1.70;;
18259;SDS011;9256;52.236;5.712;2023-06-14T13:47:46;3.30;;;1.50;;
18259;SDS011;9256;52.236;5.712;2023-06-14T13:50:13;3.35;;;1.60;;
18259;SDS011;9256;52.236;5.712;2023-06-14T13:52:42;3.28;;;1.80;;
18259;SDS011;9256;52.236;5.712;2023-06-14T13:55:09;2.10;;;1.50;;
18259;SDS011;9256;52.236;5.712;2023-06-14T13:57:36;4.75;;;1.70;;
18259;SDS011;9256;52.236;5.712;2023-06-14T14:00:03;4.00;;;1.45;;
18259;SDS011;9256;52.236;5.712;2023-06-14T14:02:31;5.45;;;2.10;;
18259;SDS011;9256;52.236;5.712;2023-06-14T14:04:58;3.30;;;1.40;;
18259;SDS011;9256;52.236;5.712;2023-06-14T14:07:25;3.70;;;1.60;;
18259;SDS011;9256;52.236;5.712;2023-06-14T14:09:54;3.58;;;1.58;;
18259;SDS011;9256;52.236;5.712;2023-06-14T14:12:22;5.32;;;1.75;;
18259;SDS011;9256;52.236;5.712;2023-06-14T14:14:50;2.05;;;1.42;;
18259;SDS011;9256;52.236;5.712;2023-06-14T14:17:17;5.53;;;1.50;;
18259;SDS011;9256;52.236;5.712;2023-06-14T14:19:44;5.97;;;1.45;;
18259;SDS011;9256;52.236;5.712;2023-06-14T14:22:11;4.32;;;1.48;;
18259;SDS011;9256;52.236;5.712;2023-06-14T14:24:38;2.53;;;1.65;;
18259;SDS011;9256;52.236;5.712;2023-06-14T14:27:06;6.25;;;1.50;;
18259;SDS011;9256;52.236;5.712;2023-06-14T14:29:34;3.90;;;1.80;;
18259;SDS011;9256;52.236;5.712;2023-06-14T14:32:00;1.70;;;1.20;;
18259;SDS011;9256;52.236;5.712;2023-06-14T14:34:27;3.38;;;1.40;;
18259;SDS011;9256;52.236;5.712;2023-06-14T14:36:54;2.90;;;1.42;;
18259;SDS011;9256;52.236;5.712;2023-06-14T14:39:21;2.33;;;1.50;;
18259;SDS011;9256;52.236;5.712;2023-06-14T14:41:48;1.98;;;1.30;;
18259;SDS011;9256;52.236;5.712;2023-06-14T14:44:17;4.80;;;1.40;;
18259;SDS011;9256;52.236;5.712;2023-06-14T14:46:44;2.85;;;1.40;;
18259;SDS011;9256;52.236;5.712;2023-06-14T14:49:11;2.22;;;1.30;;
18259;SDS011;9256;52.236;5.712;2023-06-14T14:51:38;5.97;;;1.40;;
18259;SDS011;9256;52.236;5.712;2023-06-14T14:54:05;3.88;;;1.48;;
18259;SDS011;9256;52.236;5.712;2023-06-14T14:56:32;4.07;;;1.42;;
18259;SDS011;9256;52.236;5.712;2023-06-14T14:59:00;3.78;;;1.70;;
18259;SDS011;9256;52.236;5.712;2023-06-14T15:01:29;2.03;;;1.40;;
18259;SDS011;9256;52.236;5.712;2023-06-14T15:03:56;2.25;;;1.30;;
18259;SDS011;9256;52.236;5.712;2023-06-14T15:06:23;2.08;;;1.33;;